sensor_id;sensor_type;location;lat;lon;timestamp;temperature;humidity
49829;DHT22;35723;51.194;5.112;2023-03-08T00:01:17;5.00;99.90
49829;DHT22;35723;51.194;5.112;2023-03-08T00:03:43;5.10;99.90
49829;DHT22;35723;51.194;5.112;2023-03-08T00:06:14;5.10;99.90
49829;DHT22;35723;51.194;5.112;2023-03-08T00:08:40;5.10;99.90
49829;DHT22;35723;51.194;5.112;2023-03-08T00:11:07;4.90;99.90
49829;DHT22;35723;51.194;5.112;2023-03-08T00:13:33;5.10;99.90
49829;DHT22;35723;51.194;5.112;2023-03-08T00:16:05;5.10;99.90
49829;DHT22;35723;51.194;5.112;2023-03-08T00:18:32;5.10;99.90
49829;DHT22;35723;51.194;5.112;2023-03-08T00:21:03;4.80;99.90
49829;DHT22;35723;51.194;5.112;2023-03-08T00:23:29;4.90;99.90
49829;DHT22;35723;51.194;5.112;2023-03-08T00:25:55;4.90;99.90
49829;DHT22;35723;51.194;5.112;2023-03-08T00:28:21;5.00;99.90
49829;DHT22;35723;51.194;5.112;2023-03-08T00:30:57;5.00;99.90
49829;DHT22;35723;51.194;5.112;2023-03-08T00:33:23;4.90;99.90
49829;DHT22;35723;51.194;5.112;2023-03-08T00:35:57;4.90;99.90
49829;DHT22;35723;51.194;5.112;2023-03-08T00:38:23;5.00;99.90
49829;DHT22;35723;51.194;5.112;2023-03-08T00:40:48;5.00;99.90
49829;DHT22;35723;51.194;5.112;2023-03-08T00:43:14;5.00;99.90
49829;DHT22;35723;51.194;5.112;2023-03-08T00:45:40;5.00;99.90
49829;DHT22;35723;51.194;5.112;2023-03-08T00:48:05;5.00;99.90
49829;DHT22;35723;51.194;5.112;2023-03-08T00:50:31;4.90;99.90
49829;DHT22;35723;51.194;5.112;2023-03-08T00:52:58;5.00;99.90
49829;DHT22;35723;51.194;5.112;2023-03-08T00:55:23;4.90;99.90
49829;DHT22;35723;51.194;5.112;2023-03-08T00:57:49;5.00;99.90
49829;DHT22;35723;51.194;5.112;2023-03-08T01:00:15;5.00;99.90
49829;DHT22;35723;51.194;5.112;2023-03-08T01:02:41;4.90;99.90
49829;DHT22;35723;51.194;5.112;2023-03-08T01:05:07;5.00;99.90
49829;DHT22;35723;51.194;5.112;2023-03-08T01:10:37;5.00;99.90
49829;DHT22;35723;51.194;5.112;2023-03-08T01:13:04;5.00;99.90
49829;DHT22;35723;51.194;5.112;2023-03-08T01:15:34;4.90;99.90
49829;DHT22;35723;51.194;5.112;2023-03-08T01:18:00;5.00;99.90
49829;DHT22;35723;51.194;5.112;2023-03-08T01:20:26;5.00;99.90
49829;DHT22;35723;51.194;5.112;2023-03-08T01:22:52;4.90;99.90
49829;DHT22;35723;51.194;5.112;2023-03-08T01:25:17;5.00;99.90
49829;DHT22;35723;51.194;5.112;2023-03-08T01:27:43;5.00;99.90
49829;DHT22;35723;51.194;5.112;2023-03-08T01:30:09;5.00;99.90
49829;DHT22;35723;51.194;5.112;2023-03-08T01:32:35;5.00;99.90
49829;DHT22;35723;51.194;5.112;2023-03-08T01:35:00;5.00;99.90
49829;DHT22;35723;51.194;5.112;2023-03-08T01:37:30;4.90;99.90
49829;DHT22;35723;51.194;5.112;2023-03-08T01:39:57;4.90;99.90
49829;DHT22;35723;51.194;5.112;2023-03-08T01:42:25;5.00;99.90
49829;DHT22;35723;51.194;5.112;2023-03-08T01:44:58;5.00;99.90
49829;DHT22;35723;51.194;5.112;2023-03-08T01:47:29;5.00;99.90
49829;DHT22;35723;51.194;5.112;2023-03-08T01:49:58;5.00;99.90
49829;DHT22;35723;51.194;5.112;2023-03-08T01:52:30;5.00;99.90
49829;DHT22;35723;51.194;5.112;2023-03-08T01:55:00;5.00;99.90
49829;DHT22;35723;51.194;5.112;2023-03-08T01:57:48;5.00;99.90
49829;DHT22;35723;51.194;5.112;2023-03-08T02:00:24;5.00;99.90
49829;DHT22;35723;51.194;5.112;2023-03-08T02:02:54;5.00;99.90
49829;DHT22;35723;51.194;5.112;2023-03-08T02:05:22;5.00;99.90
49829;DHT22;35723;51.194;5.112;2023-03-08T02:07:48;4.80;99.90
49829;DHT22;35723;51.194;5.112;2023-03-08T02:10:20;4.90;99.90
49829;DHT22;35723;51.194;5.112;2023-03-08T02:16:12;5.00;99.90
49829;DHT22;35723;51.194;5.112;2023-03-08T02:22:08;4.90;99.90
49829;DHT22;35723;51.194;5.112;2023-03-08T02:24:53;5.00;99.90
49829;DHT22;35723;51.194;5.112;2023-03-08T02:27:24;4.90;99.90
49829;DHT22;35723;51.194;5.112;2023-03-08T02:29:51;5.00;99.90
49829;DHT22;35723;51.194;5.112;2023-03-08T02:32:17;5.00;99.90
49829;DHT22;35723;51.194;5.112;2023-03-08T02:34:43;5.00;99.90
49829;DHT22;35723;51.194;5.112;2023-03-08T02:37:08;4.90;99.90
49829;DHT22;35723;51.194;5.112;2023-03-08T02:39:35;5.00;99.90
49829;DHT22;35723;51.194;5.112;2023-03-08T02:42:00;4.90;99.90
49829;DHT22;35723;51.194;5.112;2023-03-08T02:44:26;4.90;99.90
49829;DHT22;35723;51.194;5.112;2023-03-08T02:46:52;4.90;99.90
49829;DHT22;35723;51.194;5.112;2023-03-08T02:49:17;4.90;99.90
49829;DHT22;35723;51.194;5.112;2023-03-08T02:51:43;4.90;99.90
49829;DHT22;35723;51.194;5.112;2023-03-08T02:54:09;4.90;99.90
49829;DHT22;35723;51.194;5.112;2023-03-08T02:59:56;4.90;99.90
49829;DHT22;35723;51.194;5.112;2023-03-08T03:02:22;4.90;99.90
49829;DHT22;35723;51.194;5.112;2023-03-08T03:04:48;4.90;99.90
49829;DHT22;35723;51.194;5.112;2023-03-08T03:07:13;4.80;99.90
49829;DHT22;35723;51.194;5.112;2023-03-08T03:09:42;4.80;99.90
49829;DHT22;35723;51.194;5.112;2023-03-08T03:15:29;4.90;99.90
49829;DHT22;35723;51.194;5.112;2023-03-08T03:21:20;4.90;99.90
49829;DHT22;35723;51.194;5.112;2023-03-08T03:23:46;4.90;99.90
49829;DHT22;35723;51.194;5.112;2023-03-08T03:26:14;4.90;99.90
49829;DHT22;35723;51.194;5.112;2023-03-08T03:28:41;4.90;99.90
49829;DHT22;35723;51.194;5.112;2023-03-08T03:31:27;4.80;99.90
49829;DHT22;35723;51.194;5.112;2023-03-08T03:33:53;4.90;99.90
49829;DHT22;35723;51.194;5.112;2023-03-08T03:36:20;4.90;99.90
49829;DHT22;35723;51.194;5.112;2023-03-08T03:38:47;4.90;99.90
49829;DHT22;35723;51.194;5.112;2023-03-08T03:41:15;4.80;99.90
49829;DHT22;35723;51.194;5.112;2023-03-08T03:43:42;4.80;99.90
49829;DHT22;35723;51.194;5.112;2023-03-08T03:46:11;4.80;99.90
49829;DHT22;35723;51.194;5.112;2023-03-08T03:48:38;4.80;99.90
49829;DHT22;35723;51.194;5.112;2023-03-08T03:51:07;4.80;99.90
49829;DHT22;35723;51.194;5.112;2023-03-08T03:53:34;4.80;99.90
49829;DHT22;35723;51.194;5.112;2023-03-08T03:59:13;4.80;99.90
49829;DHT22;35723;51.194;5.112;2023-03-08T04:01:39;4.70;99.90
49829;DHT22;35723;51.194;5.112;2023-03-08T04:04:05;4.70;99.90
49829;DHT22;35723;51.194;5.112;2023-03-08T04:06:32;4.70;99.90
49829;DHT22;35723;51.194;5.112;2023-03-08T04:09:00;4.60;99.90
49829;DHT22;35723;51.194;5.112;2023-03-08T04:11:30;4.70;99.90
49829;DHT22;35723;51.194;5.112;2023-03-08T04:13:57;4.70;99.90
49829;DHT22;35723;51.194;5.112;2023-03-08T04:16:30;4.60;99.90
49829;DHT22;35723;51.194;5.112;2023-03-08T04:18:59;4.60;99.90
49829;DHT22;35723;51.194;5.112;2023-03-08T04:21:25;4.60;99.90
49829;DHT22;35723;51.194;5.112;2023-03-08T04:23:51;4.70;99.90
49829;DHT22;35723;51.194;5.112;2023-03-08T04:26:17;4.60;99.90
49829;DHT22;35723;51.194;5.112;2023-03-08T04:28:43;4.50;99.90
49829;DHT22;35723;51.194;5.112;2023-03-08T04:31:13;4.50;99.90
49829;DHT22;35723;51.194;5.112;2023-03-08T04:33:39;4.50;99.90
49829;DHT22;35723;51.194;5.112;2023-03-08T04:36:08;4.60;99.90
49829;DHT22;35723;51.194;5.112;2023-03-08T04:42:02;4.60;99.90
49829;DHT22;35723;51.194;5.112;2023-03-08T04:44:28;4.50;99.90
49829;DHT22;35723;51.194;5.112;2023-03-08T04:46:53;4.40;99.90
49829;DHT22;35723;51.194;5.112;2023-03-08T04:49:20;4.40;99.90
49829;DHT22;35723;51.194;5.112;2023-03-08T04:55:07;4.40;99.90
49829;DHT22;35723;51.194;5.112;2023-03-08T05:00:50;4.40;99.90
49829;DHT22;35723;51.194;5.112;2023-03-08T05:06:38;4.40;99.90
49829;DHT22;35723;51.194;5.112;2023-03-08T05:12:26;4.20;99.90
49829;DHT22;35723;51.194;5.112;2023-03-08T05:15:12;4.10;99.90
49829;DHT22;35723;51.194;5.112;2023-03-08T05:17:38;4.30;99.90
49829;DHT22;35723;51.194;5.112;2023-03-08T05:20:04;4.20;99.90
49829;DHT22;35723;51.194;5.112;2023-03-08T05:22:29;4.20;99.90
49829;DHT22;35723;51.194;5.112;2023-03-08T05:24:56;4.30;99.90
49829;DHT22;35723;51.194;5.112;2023-03-08T05:37:39;4.10;99.90
49829;DHT22;35723;51.194;5.112;2023-03-08T05:40:05;4.10;99.90
49829;DHT22;35723;51.194;5.112;2023-03-08T05:42:32;4.10;99.90
49829;DHT22;35723;51.194;5.112;2023-03-08T05:44:58;4.10;99.90
49829;DHT22;35723;51.194;5.112;2023-03-08T05:50:27;4.00;99.90
49829;DHT22;35723;51.194;5.112;2023-03-08T05:52:52;4.00;99.90
49829;DHT22;35723;51.194;5.112;2023-03-08T06:06:29;4.00;99.90
49829;DHT22;35723;51.194;5.112;2023-03-08T06:08:54;4.10;99.90
49829;DHT22;35723;51.194;5.112;2023-03-08T06:11:25;4.20;99.90
49829;DHT22;35723;51.194;5.112;2023-03-08T06:13:50;4.20;99.90
49829;DHT22;35723;51.194;5.112;2023-03-08T06:16:16;4.10;99.90
49829;DHT22;35723;51.194;5.112;2023-03-08T06:18:42;4.10;99.90
49829;DHT22;35723;51.194;5.112;2023-03-08T06:21:14;4.10;99.90
49829;DHT22;35723;51.194;5.112;2023-03-08T06:23:40;4.10;99.90
49829;DHT22;35723;51.194;5.112;2023-03-08T06:26:08;4.10;99.90
49829;DHT22;35723;51.194;5.112;2023-03-08T06:28:34;4.10;99.90
49829;DHT22;35723;51.194;5.112;2023-03-08T06:31:00;4.10;99.90
49829;DHT22;35723;51.194;5.112;2023-03-08T06:33:45;4.00;99.90
49829;DHT22;35723;51.194;5.112;2023-03-08T06:36:14;4.10;99.90
49829;DHT22;35723;51.194;5.112;2023-03-08T06:38:40;4.10;99.90
49829;DHT22;35723;51.194;5.112;2023-03-08T06:41:08;4.10;99.90
49829;DHT22;35723;51.194;5.112;2023-03-08T06:43:42;4.10;99.90
49829;DHT22;35723;51.194;5.112;2023-03-08T06:49:33;4.10;99.90
49829;DHT22;35723;51.194;5.112;2023-03-08T06:55:21;4.00;99.90
49829;DHT22;35723;51.194;5.112;2023-03-08T06:57:47;3.90;99.90
49829;DHT22;35723;51.194;5.112;2023-03-08T07:00:13;4.00;99.90
49829;DHT22;35723;51.194;5.112;2023-03-08T07:02:39;4.00;99.90
49829;DHT22;35723;51.194;5.112;2023-03-08T07:05:06;4.00;99.90
49829;DHT22;35723;51.194;5.112;2023-03-08T07:07:32;4.00;99.90
49829;DHT22;35723;51.194;5.112;2023-03-08T07:09:59;4.00;99.90
49829;DHT22;35723;51.194;5.112;2023-03-08T07:12:25;4.00;99.90
49829;DHT22;35723;51.194;5.112;2023-03-08T07:14:51;3.90;99.90
49829;DHT22;35723;51.194;5.112;2023-03-08T07:17:18;3.80;99.90
49829;DHT22;35723;51.194;5.112;2023-03-08T07:19:44;3.90;99.90
49829;DHT22;35723;51.194;5.112;2023-03-08T07:22:10;4.00;99.90
49829;DHT22;35723;51.194;5.112;2023-03-08T07:24:37;4.10;99.90
49829;DHT22;35723;51.194;5.112;2023-03-08T07:27:04;3.90;99.90
49829;DHT22;35723;51.194;5.112;2023-03-08T07:29:29;3.90;99.90
49829;DHT22;35723;51.194;5.112;2023-03-08T07:31:55;3.90;99.90
49829;DHT22;35723;51.194;5.112;2023-03-08T07:34:21;3.90;99.90
49829;DHT22;35723;51.194;5.112;2023-03-08T07:36:46;3.90;99.90
49829;DHT22;35723;51.194;5.112;2023-03-08T07:39:12;4.00;99.90
49829;DHT22;35723;51.194;5.112;2023-03-08T07:41:38;3.90;99.90
49829;DHT22;35723;51.194;5.112;2023-03-08T07:44:03;3.90;99.90
49829;DHT22;35723;51.194;5.112;2023-03-08T07:46:29;3.90;99.90
49829;DHT22;35723;51.194;5.112;2023-03-08T07:49:16;3.90;99.90
49829;DHT22;35723;51.194;5.112;2023-03-08T07:51:41;3.90;99.90
49829;DHT22;35723;51.194;5.112;2023-03-08T07:54:11;3.90;99.90
49829;DHT22;35723;51.194;5.112;2023-03-08T07:56:37;3.90;99.90
49829;DHT22;35723;51.194;5.112;2023-03-08T07:59:03;3.90;99.90
49829;DHT22;35723;51.194;5.112;2023-03-08T08:01:28;3.80;99.90
49829;DHT22;35723;51.194;5.112;2023-03-08T08:03:54;3.80;99.90
49829;DHT22;35723;51.194;5.112;2023-03-08T08:06:39;3.70;99.90
49829;DHT22;35723;51.194;5.112;2023-03-08T08:09:06;3.70;99.90
49829;DHT22;35723;51.194;5.112;2023-03-08T08:11:32;3.70;99.90
49829;DHT22;35723;51.194;5.112;2023-03-08T08:13:59;3.70;99.90
49829;DHT22;35723;51.194;5.112;2023-03-08T08:16:25;3.90;99.90
49829;DHT22;35723;51.194;5.112;2023-03-08T08:18:52;3.90;99.90
49829;DHT22;35723;51.194;5.112;2023-03-08T08:21:19;3.90;99.90
49829;DHT22;35723;51.194;5.112;2023-03-08T08:23:45;3.80;99.90
49829;DHT22;35723;51.194;5.112;2023-03-08T08:26:21;3.80;99.90
49829;DHT22;35723;51.194;5.112;2023-03-08T08:28:50;3.80;99.90
49829;DHT22;35723;51.194;5.112;2023-03-08T08:31:19;3.80;99.90
49829;DHT22;35723;51.194;5.112;2023-03-08T08:33:44;4.00;99.90
49829;DHT22;35723;51.194;5.112;2023-03-08T08:36:16;3.90;99.90
49829;DHT22;35723;51.194;5.112;2023-03-08T08:38:42;3.90;99.90
49829;DHT22;35723;51.194;5.112;2023-03-08T08:41:08;3.90;99.90
49829;DHT22;35723;51.194;5.112;2023-03-08T08:43:35;4.00;99.90
49829;DHT22;35723;51.194;5.112;2023-03-08T08:46:02;3.80;99.90
49829;DHT22;35723;51.194;5.112;2023-03-08T08:48:28;3.90;99.90
49829;DHT22;35723;51.194;5.112;2023-03-08T08:50:54;3.80;99.90
49829;DHT22;35723;51.194;5.112;2023-03-08T08:53:20;3.80;99.90
49829;DHT22;35723;51.194;5.112;2023-03-08T08:55:46;3.80;99.90
49829;DHT22;35723;51.194;5.112;2023-03-08T08:58:12;3.90;99.90
49829;DHT22;35723;51.194;5.112;2023-03-08T09:00:39;4.00;99.90
49829;DHT22;35723;51.194;5.112;2023-03-08T09:03:05;3.90;99.90
49829;DHT22;35723;51.194;5.112;2023-03-08T09:05:32;3.90;99.90
49829;DHT22;35723;51.194;5.112;2023-03-08T09:07:59;4.00;99.90
49829;DHT22;35723;51.194;5.112;2023-03-08T09:10:28;3.90;99.90
49829;DHT22;35723;51.194;5.112;2023-03-08T09:12:54;3.90;99.90
49829;DHT22;35723;51.194;5.112;2023-03-08T09:15:20;3.90;99.90
49829;DHT22;35723;51.194;5.112;2023-03-08T09:17:48;4.00;99.90
49829;DHT22;35723;51.194;5.112;2023-03-08T09:20:13;3.90;99.90
49829;DHT22;35723;51.194;5.112;2023-03-08T09:22:39;3.90;99.90
49829;DHT22;35723;51.194;5.112;2023-03-08T09:25:07;3.90;99.90
49829;DHT22;35723;51.194;5.112;2023-03-08T09:27:33;4.00;99.90
49829;DHT22;35723;51.194;5.112;2023-03-08T09:29:59;4.00;99.90
49829;DHT22;35723;51.194;5.112;2023-03-08T09:32:25;4.10;99.90
49829;DHT22;35723;51.194;5.112;2023-03-08T09:34:51;4.00;99.90
49829;DHT22;35723;51.194;5.112;2023-03-08T09:37:18;4.00;99.90
49829;DHT22;35723;51.194;5.112;2023-03-08T09:39:44;4.00;99.90
49829;DHT22;35723;51.194;5.112;2023-03-08T09:42:36;4.00;99.90
49829;DHT22;35723;51.194;5.112;2023-03-08T09:45:05;4.10;99.90
49829;DHT22;35723;51.194;5.112;2023-03-08T09:50:44;4.10;99.90
49829;DHT22;35723;51.194;5.112;2023-03-08T09:56:19;4.00;99.90
49829;DHT22;35723;51.194;5.112;2023-03-08T09:59:01;4.00;99.90
49829;DHT22;35723;51.194;5.112;2023-03-08T10:13:01;4.10;99.90
49829;DHT22;35723;51.194;5.112;2023-03-08T10:15:30;4.20;99.90
49829;DHT22;35723;51.194;5.112;2023-03-08T10:20:57;4.20;99.90
49829;DHT22;35723;51.194;5.112;2023-03-08T10:23:23;4.20;99.90
49829;DHT22;35723;51.194;5.112;2023-03-08T10:25:50;4.20;99.90
49829;DHT22;35723;51.194;5.112;2023-03-08T10:28:21;4.10;99.90
49829;DHT22;35723;51.194;5.112;2023-03-08T10:30:53;4.20;99.90
49829;DHT22;35723;51.194;5.112;2023-03-08T10:33:22;4.30;99.90
49829;DHT22;35723;51.194;5.112;2023-03-08T10:38:17;4.40;99.90
49829;DHT22;35723;51.194;5.112;2023-03-08T10:40:43;4.40;99.90
49829;DHT22;35723;51.194;5.112;2023-03-08T10:43:29;4.30;99.90
49829;DHT22;35723;51.194;5.112;2023-03-08T10:46:13;4.30;99.90
49829;DHT22;35723;51.194;5.112;2023-03-08T10:48:40;4.30;99.90
49829;DHT22;35723;51.194;5.112;2023-03-08T10:51:15;4.40;99.90
49829;DHT22;35723;51.194;5.112;2023-03-08T10:53:55;4.30;99.90
49829;DHT22;35723;51.194;5.112;2023-03-08T10:56:35;4.30;99.90
49829;DHT22;35723;51.194;5.112;2023-03-08T10:59:02;4.30;99.90
49829;DHT22;35723;51.194;5.112;2023-03-08T11:01:33;4.30;99.90
49829;DHT22;35723;51.194;5.112;2023-03-08T11:04:14;4.30;99.90
49829;DHT22;35723;51.194;5.112;2023-03-08T11:06:40;4.40;99.90
49829;DHT22;35723;51.194;5.112;2023-03-08T11:11:47;4.40;99.90
49829;DHT22;35723;51.194;5.112;2023-03-08T11:14:14;4.40;99.90
49829;DHT22;35723;51.194;5.112;2023-03-08T11:16:52;4.40;99.90
49829;DHT22;35723;51.194;5.112;2023-03-08T11:20:12;4.40;99.90
49829;DHT22;35723;51.194;5.112;2023-03-08T11:25:41;4.40;99.90
49829;DHT22;35723;51.194;5.112;2023-03-08T11:28:48;4.40;99.90
49829;DHT22;35723;51.194;5.112;2023-03-08T11:36:49;4.20;99.90
49829;DHT22;35723;51.194;5.112;2023-03-08T11:39:31;4.20;99.90
49829;DHT22;35723;51.194;5.112;2023-03-08T11:50:15;4.20;99.90
49829;DHT22;35723;51.194;5.112;2023-03-08T11:53:08;4.30;99.90
49829;DHT22;35723;51.194;5.112;2023-03-08T11:58:48;4.40;99.90
49829;DHT22;35723;51.194;5.112;2023-03-08T12:01:20;4.30;99.90
49829;DHT22;35723;51.194;5.112;2023-03-08T12:03:50;4.30;99.90
49829;DHT22;35723;51.194;5.112;2023-03-08T12:06:23;4.30;99.90
49829;DHT22;35723;51.194;5.112;2023-03-08T12:08:58;4.40;99.90
49829;DHT22;35723;51.194;5.112;2023-03-08T12:11:32;4.40;99.90
49829;DHT22;35723;51.194;5.112;2023-03-08T12:14:22;4.50;99.90
49829;DHT22;35723;51.194;5.112;2023-03-08T12:17:09;4.40;99.90
49829;DHT22;35723;51.194;5.112;2023-03-08T12:19:42;4.40;99.90
49829;DHT22;35723;51.194;5.112;2023-03-08T12:25:26;4.40;99.90
49829;DHT22;35723;51.194;5.112;2023-03-08T12:31:00;4.30;99.90
49829;DHT22;35723;51.194;5.112;2023-03-08T12:33:29;4.30;99.90
49829;DHT22;35723;51.194;5.112;2023-03-08T12:36:02;4.20;99.90
49829;DHT22;35723;51.194;5.112;2023-03-08T12:40:54;4.30;99.90
49829;DHT22;35723;51.194;5.112;2023-03-08T12:51:03;4.20;99.90
49829;DHT22;35723;51.194;5.112;2023-03-08T12:56:15;4.30;99.90
49829;DHT22;35723;51.194;5.112;2023-03-08T12:58:52;4.20;99.90
49829;DHT22;35723;51.194;5.112;2023-03-08T13:04:34;4.30;99.90
49829;DHT22;35723;51.194;5.112;2023-03-08T13:12:33;4.50;99.90
49829;DHT22;35723;51.194;5.112;2023-03-08T13:17:52;4.50;99.90
49829;DHT22;35723;51.194;5.112;2023-03-08T13:23:35;4.30;99.90
49829;DHT22;35723;51.194;5.112;2023-03-08T13:28:49;4.30;99.90
49829;DHT22;35723;51.194;5.112;2023-03-08T13:31:26;4.30;99.90
49829;DHT22;35723;51.194;5.112;2023-03-08T13:33:54;4.30;99.90
49829;DHT22;35723;51.194;5.112;2023-03-08T13:36:22;4.30;99.90
49829;DHT22;35723;51.194;5.112;2023-03-08T13:39:06;4.40;99.90
49829;DHT22;35723;51.194;5.112;2023-03-08T13:41:33;4.40;99.90
49829;DHT22;35723;51.194;5.112;2023-03-08T13:44:04;4.40;99.90
49829;DHT22;35723;51.194;5.112;2023-03-08T13:46:30;4.50;99.90
49829;DHT22;35723;51.194;5.112;2023-03-08T13:48:56;4.40;99.90
49829;DHT22;35723;51.194;5.112;2023-03-08T13:51:26;4.40;99.90
49829;DHT22;35723;51.194;5.112;2023-03-08T13:53:53;4.40;99.90
49829;DHT22;35723;51.194;5.112;2023-03-08T13:56:25;4.40;99.90
49829;DHT22;35723;51.194;5.112;2023-03-08T13:58:52;4.40;99.90
49829;DHT22;35723;51.194;5.112;2023-03-08T14:01:22;4.40;99.90
49829;DHT22;35723;51.194;5.112;2023-03-08T14:03:48;4.40;99.90
49829;DHT22;35723;51.194;5.112;2023-03-08T14:06:22;4.50;99.90
49829;DHT22;35723;51.194;5.112;2023-03-08T14:08:47;4.40;99.90
49829;DHT22;35723;51.194;5.112;2023-03-08T14:11:20;4.40;99.90
49829;DHT22;35723;51.194;5.112;2023-03-08T14:13:49;4.40;99.90
49829;DHT22;35723;51.194;5.112;2023-03-08T14:16:42;4.40;99.90
49829;DHT22;35723;51.194;5.112;2023-03-08T14:19:24;4.50;99.90
49829;DHT22;35723;51.194;5.112;2023-03-08T14:21:59;4.50;99.90
49829;DHT22;35723;51.194;5.112;2023-03-08T14:24:32;4.50;99.90
49829;DHT22;35723;51.194;5.112;2023-03-08T14:29:27;4.50;99.90
49829;DHT22;35723;51.194;5.112;2023-03-08T14:37:22;4.50;99.90
49829;DHT22;35723;51.194;5.112;2023-03-08T14:39:49;4.50;99.90
49829;DHT22;35723;51.194;5.112;2023-03-08T14:42:40;4.60;99.90
49829;DHT22;35723;51.194;5.112;2023-03-08T14:45:21;4.50;99.90
49829;DHT22;35723;51.194;5.112;2023-03-08T14:51:37;4.50;99.90
49829;DHT22;35723;51.194;5.112;2023-03-08T14:57:33;4.50;99.90
49829;DHT22;35723;51.194;5.112;2023-03-08T15:03:29;4.50;99.90
49829;DHT22;35723;51.194;5.112;2023-03-08T15:09:20;4.40;99.90
49829;DHT22;35723;51.194;5.112;2023-03-08T15:12:29;4.50;99.90
49829;DHT22;35723;51.194;5.112;2023-03-08T15:14:55;4.50;99.90
49829;DHT22;35723;51.194;5.112;2023-03-08T15:17:20;4.40;99.90
49829;DHT22;35723;51.194;5.112;2023-03-08T15:19:47;4.50;99.90
49829;DHT22;35723;51.194;5.112;2023-03-08T15:22:13;4.60;99.90
49829;DHT22;35723;51.194;5.112;2023-03-08T15:24:40;4.50;99.90
49829;DHT22;35723;51.194;5.112;2023-03-08T15:27:16;4.50;99.90
49829;DHT22;35723;51.194;5.112;2023-03-08T15:29:41;4.50;99.90
49829;DHT22;35723;51.194;5.112;2023-03-08T15:32:07;4.50;99.90
49829;DHT22;35723;51.194;5.112;2023-03-08T15:34:55;4.60;99.90
49829;DHT22;35723;51.194;5.112;2023-03-08T15:37:42;4.50;99.90
49829;DHT22;35723;51.194;5.112;2023-03-08T15:40:17;4.60;99.90
49829;DHT22;35723;51.194;5.112;2023-03-08T15:42:48;4.60;99.90
49829;DHT22;35723;51.194;5.112;2023-03-08T15:45:16;4.60;99.90
49829;DHT22;35723;51.194;5.112;2023-03-08T15:47:42;4.60;99.90
49829;DHT22;35723;51.194;5.112;2023-03-08T16:00:33;4.50;99.90
49829;DHT22;35723;51.194;5.112;2023-03-08T16:02:59;4.50;99.90
49829;DHT22;35723;51.194;5.112;2023-03-08T16:05:25;4.60;99.90
49829;DHT22;35723;51.194;5.112;2023-03-08T16:08:02;4.60;99.90
49829;DHT22;35723;51.194;5.112;2023-03-08T16:10:30;4.50;99.90
49829;DHT22;35723;51.194;5.112;2023-03-08T16:12:57;4.50;99.90
49829;DHT22;35723;51.194;5.112;2023-03-08T16:15:23;4.50;99.90
49829;DHT22;35723;51.194;5.112;2023-03-08T16:17:49;4.40;99.90
49829;DHT22;35723;51.194;5.112;2023-03-08T16:20:15;4.60;99.90
49829;DHT22;35723;51.194;5.112;2023-03-08T16:22:44;4.60;99.90
49829;DHT22;35723;51.194;5.112;2023-03-08T16:25:10;4.50;99.90
49829;DHT22;35723;51.194;5.112;2023-03-08T16:27:38;4.50;99.90
49829;DHT22;35723;51.194;5.112;2023-03-08T16:30:04;4.40;99.90
49829;DHT22;35723;51.194;5.112;2023-03-08T16:32:30;4.50;99.90
49829;DHT22;35723;51.194;5.112;2023-03-08T16:34:59;4.40;99.90
49829;DHT22;35723;51.194;5.112;2023-03-08T16:37:26;4.50;99.90
49829;DHT22;35723;51.194;5.112;2023-03-08T16:39:52;4.50;99.90
49829;DHT22;35723;51.194;5.112;2023-03-08T16:42:23;4.50;99.90
49829;DHT22;35723;51.194;5.112;2023-03-08T16:44:51;4.50;99.90
49829;DHT22;35723;51.194;5.112;2023-03-08T16:47:18;4.50;99.90
49829;DHT22;35723;51.194;5.112;2023-03-08T16:49:44;4.40;99.90
49829;DHT22;35723;51.194;5.112;2023-03-08T16:52:10;4.40;99.90
49829;DHT22;35723;51.194;5.112;2023-03-08T16:54:36;4.40;99.90
49829;DHT22;35723;51.194;5.112;2023-03-08T16:57:02;4.40;99.90
49829;DHT22;35723;51.194;5.112;2023-03-08T16:59:30;4.40;99.90
49829;DHT22;35723;51.194;5.112;2023-03-08T17:04:28;4.40;99.90
49829;DHT22;35723;51.194;5.112;2023-03-08T17:06:54;4.30;99.90
49829;DHT22;35723;51.194;5.112;2023-03-08T17:09:20;4.50;99.90
49829;DHT22;35723;51.194;5.112;2023-03-08T17:11:46;4.40;99.90
49829;DHT22;35723;51.194;5.112;2023-03-08T17:14:13;4.40;99.90
49829;DHT22;35723;51.194;5.112;2023-03-08T17:16:40;4.30;99.90
49829;DHT22;35723;51.194;5.112;2023-03-08T17:19:07;4.60;99.90
49829;DHT22;35723;51.194;5.112;2023-03-08T17:31:22;4.50;99.90
49829;DHT22;35723;51.194;5.112;2023-03-08T17:37:10;4.50;99.90
49829;DHT22;35723;51.194;5.112;2023-03-08T17:39:39;4.30;99.90
49829;DHT22;35723;51.194;5.112;2023-03-08T17:42:06;4.30;99.90
49829;DHT22;35723;51.194;5.112;2023-03-08T17:44:33;4.20;99.90
49829;DHT22;35723;51.194;5.112;2023-03-08T17:50:26;4.30;99.90
49829;DHT22;35723;51.194;5.112;2023-03-08T17:52:55;4.20;99.90
49829;DHT22;35723;51.194;5.112;2023-03-08T17:55:21;4.20;99.90
49829;DHT22;35723;51.194;5.112;2023-03-08T17:57:47;4.20;99.90
49829;DHT22;35723;51.194;5.112;2023-03-08T18:00:13;4.10;99.90
49829;DHT22;35723;51.194;5.112;2023-03-08T18:02:39;4.30;99.90
49829;DHT22;35723;51.194;5.112;2023-03-08T18:05:05;4.30;99.90
49829;DHT22;35723;51.194;5.112;2023-03-08T18:07:32;4.10;99.90
49829;DHT22;35723;51.194;5.112;2023-03-08T18:09:58;4.30;99.90
49829;DHT22;35723;51.194;5.112;2023-03-08T18:12:26;4.10;99.90
49829;DHT22;35723;51.194;5.112;2023-03-08T18:14:52;4.10;99.90
49829;DHT22;35723;51.194;5.112;2023-03-08T18:17:19;4.40;99.90
49829;DHT22;35723;51.194;5.112;2023-03-08T18:19:46;4.50;99.90
49829;DHT22;35723;51.194;5.112;2023-03-08T18:22:12;4.20;99.90
49829;DHT22;35723;51.194;5.112;2023-03-08T18:24:38;4.20;99.90
49829;DHT22;35723;51.194;5.112;2023-03-08T18:27:05;4.50;99.90
49829;DHT22;35723;51.194;5.112;2023-03-08T18:29:34;4.30;99.90
49829;DHT22;35723;51.194;5.112;2023-03-08T18:32:01;4.30;99.90
49829;DHT22;35723;51.194;5.112;2023-03-08T18:34:27;4.50;99.90
49829;DHT22;35723;51.194;5.112;2023-03-08T18:36:56;4.40;99.90
49829;DHT22;35723;51.194;5.112;2023-03-08T18:39:25;4.40;99.90
49829;DHT22;35723;51.194;5.112;2023-03-08T18:41:51;4.30;99.90
49829;DHT22;35723;51.194;5.112;2023-03-08T18:44:21;4.20;99.90
49829;DHT22;35723;51.194;5.112;2023-03-08T18:46:47;4.30;99.90
49829;DHT22;35723;51.194;5.112;2023-03-08T18:49:14;4.20;99.90
49829;DHT22;35723;51.194;5.112;2023-03-08T18:51:41;4.40;99.90
49829;DHT22;35723;51.194;5.112;2023-03-08T18:54:10;4.30;99.90
49829;DHT22;35723;51.194;5.112;2023-03-08T18:56:36;4.40;99.90
49829;DHT22;35723;51.194;5.112;2023-03-08T18:59:04;4.40;99.90
49829;DHT22;35723;51.194;5.112;2023-03-08T19:01:31;4.20;99.90
49829;DHT22;35723;51.194;5.112;2023-03-08T19:03:58;4.40;99.90
49829;DHT22;35723;51.194;5.112;2023-03-08T19:06:25;4.40;99.90
49829;DHT22;35723;51.194;5.112;2023-03-08T19:08:51;4.50;99.90
49829;DHT22;35723;51.194;5.112;2023-03-08T19:11:18;4.50;99.90
49829;DHT22;35723;51.194;5.112;2023-03-08T19:13:45;4.30;99.90
49829;DHT22;35723;51.194;5.112;2023-03-08T19:16:28;4.30;99.90
49829;DHT22;35723;51.194;5.112;2023-03-08T19:18:59;4.40;99.90
49829;DHT22;35723;51.194;5.112;2023-03-08T19:21:30;4.40;99.90